Accueil
METAR-TAF:

METAR-TAF

Aéroports :

Aéroport de Bergerac-Dordogne-Périgord

Bergerac, France

latitude: 44-49N, longitude: 000-31E, altitude: 51 m

Observation

Le bulletin a été fait il y a 29 minutes, à 06:00 UTC
Vent 1 kt de direction variable
Température 16°C
Humidité 94%
Pression 1020 hPa
Visibilité: 8000 m
Nuages fragmentés à une hauteur de 200 ft
Nuages fragmentés à une hauteur de 5600 ft
Ciel couvert à une hauteur de 7200 ft

METAR: LFBE 190600Z AUTO VRB01KT 8000 BKN002 BKN056 OVC072 16/15 Q1020 BECMG NSC

Heure: 08:29 (06:29 UTC)

Prévision

Le bulletin a été fait il y a 1 heure et 29 minutes, à 05:00 UTC
Prévision valable du 19 à 06 UTC au 20 à 06 UTC
Vent 5 kt de nord/nord-ouest
Visibilité 10 km ou plus
pas de nuages en-dessous de 1500 mètres et pas de cumulonimbus.

TAF: LFBE 190500Z 1906/2006 34005KT CAVOK

Observations et prévisions météorologiques de plus de 4000 aéroports (messages METAR et TAF).

Les stations disponibles sont représentées par des disques jaunes et rouges sur la carte.

Passer la souris dessus pour voir le nom de la station.

Cliquer dessus pour voir les observations et prévisions météorologiques.

Pour changer de carte: cliquez sur les boutons verts avec une croix noire pour zoomer, sur le bouton vert avec un tiret pour effectuer un zoom arrière, ou sur les flèches vertes pour les cartes adjacentes.


METAR-TAF: